sensor_id;sensor_type;location;lat;lon;timestamp;pressure;altitude;pressure_sealevel;temperature;humidity
61710;BME280;47633;51.494;5.386;2023-02-26T00:00:58;101738.34;;;18.49;40.35
61710;BME280;47633;51.494;5.386;2023-02-26T00:03:23;101738.47;;;18.47;40.43
61710;BME280;47633;51.494;5.386;2023-02-26T00:05:48;101747.22;;;18.48;40.22
61710;BME280;47633;51.494;5.386;2023-02-26T00:08:14;101740.47;;;18.44;40.50
61710;BME280;47633;51.494;5.386;2023-02-26T00:10:39;101738.03;;;18.41;40.71
61710;BME280;47633;51.494;5.386;2023-02-26T00:13:05;101735.94;;;18.33;40.92
61710;BME280;47633;51.494;5.386;2023-02-26T00:15:30;101753.13;;;18.39;40.81
61710;BME280;47633;51.494;5.386;2023-02-26T00:18:10;101754.00;;;18.39;40.90
61710;BME280;47633;51.494;5.386;2023-02-26T00:20:38;101764.53;;;18.39;40.63
61710;BME280;47633;51.494;5.386;2023-02-26T00:23:03;101757.66;;;18.37;40.82
61710;BME280;47633;51.494;5.386;2023-02-26T00:25:29;101769.81;;;18.39;40.70
61710;BME280;47633;51.494;5.386;2023-02-26T00:27:54;101758.59;;;18.36;40.69
61710;BME280;47633;51.494;5.386;2023-02-26T00:30:20;101764.00;;;18.34;40.51
61710;BME280;47633;51.494;5.386;2023-02-26T00:32:45;101761.25;;;18.36;40.61
61710;BME280;47633;51.494;5.386;2023-02-26T00:35:13;101766.84;;;18.31;40.74
61710;BME280;47633;51.494;5.386;2023-02-26T00:37:51;101778.25;;;18.31;40.92
61710;BME280;47633;51.494;5.386;2023-02-26T00:40:32;101771.47;;;18.27;40.44
61710;BME280;47633;51.494;5.386;2023-02-26T00:42:59;101771.47;;;18.27;40.71
61710;BME280;47633;51.494;5.386;2023-02-26T00:45:25;101786.38;;;18.28;40.88
61710;BME280;47633;51.494;5.386;2023-02-26T00:47:56;101784.88;;;18.24;40.83
61710;BME280;47633;51.494;5.386;2023-02-26T00:50:25;101783.19;;;18.23;40.44
61710;BME280;47633;51.494;5.386;2023-02-26T00:53:16;101788.59;;;18.22;40.97
61710;BME280;47633;51.494;5.386;2023-02-26T00:55:45;101792.88;;;18.23;40.88
61710;BME280;47633;51.494;5.386;2023-02-26T00:58:10;101798.16;;;18.23;40.51
61710;BME280;47633;51.494;5.386;2023-02-26T01:00:35;101785.28;;;18.18;40.61
61710;BME280;47633;51.494;5.386;2023-02-26T01:03:01;101787.91;;;18.18;40.79
61710;BME280;47633;51.494;5.386;2023-02-26T01:05:27;101791.53;;;18.17;40.94
61710;BME280;47633;51.494;5.386;2023-02-26T01:08:33;101800.28;;;18.18;40.86
61710;BME280;47633;51.494;5.386;2023-02-26T01:11:01;101800.28;;;18.18;40.81
61710;BME280;47633;51.494;5.386;2023-02-26T01:13:27;101802.19;;;18.16;40.92
61710;BME280;47633;51.494;5.386;2023-02-26T01:16:08;101802.28;;;18.14;40.69
61710;BME280;47633;51.494;5.386;2023-02-26T01:18:42;101807.66;;;18.12;40.90
61710;BME280;47633;51.494;5.386;2023-02-26T01:21:14;101808.50;;;18.13;41.00
61710;BME280;47633;51.494;5.386;2023-02-26T01:23:44;101804.38;;;18.09;40.97
61710;BME280;47633;51.494;5.386;2023-02-26T01:26:18;101811.53;;;18.07;40.85
61710;BME280;47633;51.494;5.386;2023-02-26T01:28:46;101806.16;;;18.08;40.86
61710;BME280;47633;51.494;5.386;2023-02-26T01:34:04;101802.97;;;18.03;40.85
61710;BME280;47633;51.494;5.386;2023-02-26T01:36:35;101805.63;;;18.03;40.73
61710;BME280;47633;51.494;5.386;2023-02-26T01:39:16;101815.34;;;18.03;40.78
61710;BME280;47633;51.494;5.386;2023-02-26T01:41:59;101819.75;;;18.02;40.87
61710;BME280;47633;51.494;5.386;2023-02-26T01:44:35;101813.00;;;17.98;40.87
61710;BME280;47633;51.494;5.386;2023-02-26T01:49:54;101813.00;;;17.98;40.89
61710;BME280;47633;51.494;5.386;2023-02-26T01:55:18;101823.75;;;17.95;40.84
61710;BME280;47633;51.494;5.386;2023-02-26T01:57:44;101830.72;;;17.96;40.86
61710;BME280;47633;51.494;5.386;2023-02-26T02:00:10;101824.78;;;17.92;40.67
61710;BME280;47633;51.494;5.386;2023-02-26T02:02:36;101822.22;;;17.91;40.64
61710;BME280;47633;51.494;5.386;2023-02-26T02:05:11;101825.75;;;17.91;40.77
61710;BME280;47633;51.494;5.386;2023-02-26T02:07:38;101830.25;;;17.89;40.54
61710;BME280;47633;51.494;5.386;2023-02-26T02:10:04;101835.41;;;17.91;40.80
61710;BME280;47633;51.494;5.386;2023-02-26T02:23:18;101849.94;;;17.84;41.05
61710;BME280;47633;51.494;5.386;2023-02-26T02:31:26;101863.13;;;17.84;41.10
61710;BME280;47633;51.494;5.386;2023-02-26T02:33:59;101866.78;;;17.81;41.04
61710;BME280;47633;51.494;5.386;2023-02-26T02:36:42;101866.88;;;17.80;40.96
61710;BME280;47633;51.494;5.386;2023-02-26T02:39:20;101873.94;;;17.79;40.94
61710;BME280;47633;51.494;5.386;2023-02-26T02:42:00;101873.03;;;17.80;40.99
61710;BME280;47633;51.494;5.386;2023-02-26T02:44:29;101871.22;;;17.81;40.65
61710;BME280;47633;51.494;5.386;2023-02-26T02:46:57;101874.06;;;17.77;40.65
61710;BME280;47633;51.494;5.386;2023-02-26T02:49:28;101883.75;;;17.77;41.07
61710;BME280;47633;51.494;5.386;2023-02-26T02:52:00;101886.41;;;17.77;40.97
61710;BME280;47633;51.494;5.386;2023-02-26T02:54:55;101884.78;;;17.74;41.22
61710;BME280;47633;51.494;5.386;2023-02-26T02:57:23;101883.94;;;17.74;41.08
61710;BME280;47633;51.494;5.386;2023-02-26T02:59:55;101891.84;;;17.74;41.06
61710;BME280;47633;51.494;5.386;2023-02-26T03:02:36;101890.06;;;17.74;40.89
61710;BME280;47633;51.494;5.386;2023-02-26T03:05:04;101888.44;;;17.72;40.91
61710;BME280;47633;51.494;5.386;2023-02-26T03:07:32;101894.69;;;17.71;40.76
61710;BME280;47633;51.494;5.386;2023-02-26T03:09:59;101903.34;;;17.73;41.05
61710;BME280;47633;51.494;5.386;2023-02-26T03:12:26;101909.53;;;17.72;41.12
61710;BME280;47633;51.494;5.386;2023-02-26T03:14:51;101905.44;;;17.68;40.65
61710;BME280;47633;51.494;5.386;2023-02-26T03:17:32;101908.06;;;17.68;40.97
61710;BME280;47633;51.494;5.386;2023-02-26T03:28:06;101925.66;;;17.67;40.75
61710;BME280;47633;51.494;5.386;2023-02-26T03:30:39;101918.78;;;17.65;40.42
61710;BME280;47633;51.494;5.386;2023-02-26T03:33:16;101928.41;;;17.66;40.64
61710;BME280;47633;51.494;5.386;2023-02-26T03:35:50;101926.69;;;17.65;40.71
61710;BME280;47633;51.494;5.386;2023-02-26T03:38:30;101927.63;;;17.64;40.80
61710;BME280;47633;51.494;5.386;2023-02-26T03:41:02;101930.47;;;17.61;40.72
61710;BME280;47633;51.494;5.386;2023-02-26T03:43:33;101927.91;;;17.59;40.71
61710;BME280;47633;51.494;5.386;2023-02-26T03:46:05;101928.88;;;17.58;40.68
61710;BME280;47633;51.494;5.386;2023-02-26T03:48:33;101942.72;;;17.62;40.64
61710;BME280;47633;51.494;5.386;2023-02-26T03:51:04;101940.34;;;17.57;40.79
61710;BME280;47633;51.494;5.386;2023-02-26T03:53:38;101943.72;;;17.59;40.75
61710;BME280;47633;51.494;5.386;2023-02-26T03:56:20;101943.91;;;17.56;40.92
61710;BME280;47633;51.494;5.386;2023-02-26T03:58:47;101955.97;;;17.60;40.67
61710;BME280;47633;51.494;5.386;2023-02-26T04:01:20;101951.81;;;17.56;40.91
61710;BME280;47633;51.494;5.386;2023-02-26T04:03:53;101964.81;;;17.59;40.97
61710;BME280;47633;51.494;5.386;2023-02-26T04:06:22;101964.81;;;17.59;40.97
61710;BME280;47633;51.494;5.386;2023-02-26T04:08:47;101963.97;;;17.58;40.88
61710;BME280;47633;51.494;5.386;2023-02-26T04:11:18;101969.25;;;17.58;40.68
61710;BME280;47633;51.494;5.386;2023-02-26T04:13:44;101979.81;;;17.58;40.69
61710;BME280;47633;51.494;5.386;2023-02-26T04:16:10;101967.56;;;17.57;40.89
61710;BME280;47633;51.494;5.386;2023-02-26T04:18:35;101976.41;;;17.56;40.90
61710;BME280;47633;51.494;5.386;2023-02-26T04:21:01;101977.25;;;17.57;40.78
61710;BME280;47633;51.494;5.386;2023-02-26T04:23:26;101973.88;;;17.55;40.92
61710;BME280;47633;51.494;5.386;2023-02-26T04:25:52;101979.97;;;17.55;40.79
61710;BME280;47633;51.494;5.386;2023-02-26T04:28:17;101984.41;;;17.55;41.13
61710;BME280;47633;51.494;5.386;2023-02-26T04:30:42;101983.38;;;17.57;41.35
61710;BME280;47633;51.494;5.386;2023-02-26T04:33:08;101993.16;;;17.55;40.97
61710;BME280;47633;51.494;5.386;2023-02-26T04:35:33;101998.44;;;17.55;40.74
61710;BME280;47633;51.494;5.386;2023-02-26T04:37:58;101995.06;;;17.53;40.99
61710;BME280;47633;51.494;5.386;2023-02-26T04:40:24;102000.97;;;17.57;40.92
61710;BME280;47633;51.494;5.386;2023-02-26T04:42:49;102003.63;;;17.57;40.96
61710;BME280;47633;51.494;5.386;2023-02-26T04:45:15;102007.09;;;17.57;41.28
61710;BME280;47633;51.494;5.386;2023-02-26T04:47:40;102002.78;;;17.56;40.98
61710;BME280;47633;51.494;5.386;2023-02-26T04:50:06;102010.59;;;17.58;41.18
61710;BME280;47633;51.494;5.386;2023-02-26T04:52:32;101998.53;;;17.54;41.31
61710;BME280;47633;51.494;5.386;2023-02-26T04:54:57;102004.53;;;17.56;41.48
61710;BME280;47633;51.494;5.386;2023-02-26T04:57:22;102011.53;;;17.57;41.42
61710;BME280;47633;51.494;5.386;2023-02-26T04:59:48;102022.81;;;17.59;41.42
61710;BME280;47633;51.494;5.386;2023-02-26T05:02:13;102020.34;;;17.56;41.29
61710;BME280;47633;51.494;5.386;2023-02-26T05:04:38;102028.19;;;17.57;41.39
61710;BME280;47633;51.494;5.386;2023-02-26T05:07:03;102023.97;;;17.55;41.49
61710;BME280;47633;51.494;5.386;2023-02-26T05:09:29;102028.28;;;17.56;41.70
61710;BME280;47633;51.494;5.386;2023-02-26T05:11:54;102031.69;;;17.58;41.11
61710;BME280;47633;51.494;5.386;2023-02-26T05:14:19;102033.53;;;17.56;41.42
61710;BME280;47633;51.494;5.386;2023-02-26T05:16:45;102033.44;;;17.57;41.34
61710;BME280;47633;51.494;5.386;2023-02-26T05:19:10;102044.88;;;17.58;41.13
61710;BME280;47633;51.494;5.386;2023-02-26T05:21:35;102043.16;;;17.57;41.27
61710;BME280;47633;51.494;5.386;2023-02-26T05:24:01;102038.81;;;17.56;41.49
61710;BME280;47633;51.494;5.386;2023-02-26T05:26:26;102050.22;;;17.56;41.50
61710;BME280;47633;51.494;5.386;2023-02-26T05:28:51;102055.41;;;17.58;41.32
61710;BME280;47633;51.494;5.386;2023-02-26T05:31:17;102048.44;;;17.57;41.43
61710;BME280;47633;51.494;5.386;2023-02-26T05:33:42;102055.69;;;17.53;41.01
61710;BME280;47633;51.494;5.386;2023-02-26T05:36:08;102067.81;;;17.56;40.66
61710;BME280;47633;51.494;5.386;2023-02-26T05:38:34;102055.59;;;17.55;40.09
61710;BME280;47633;51.494;5.386;2023-02-26T05:40:59;102051.91;;;17.57;39.83
61710;BME280;47633;51.494;5.386;2023-02-26T05:43:26;102066.50;;;17.63;39.64
61710;BME280;47633;51.494;5.386;2023-02-26T05:45:52;102063.78;;;17.65;39.49
61710;BME280;47633;51.494;5.386;2023-02-26T05:48:18;102065.19;;;17.70;39.62
61710;BME280;47633;51.494;5.386;2023-02-26T05:50:43;102064.91;;;17.75;39.69
61710;BME280;47633;51.494;5.386;2023-02-26T05:53:09;102076.91;;;17.81;39.69
61710;BME280;47633;51.494;5.386;2023-02-26T05:55:34;102064.47;;;17.83;39.40
61710;BME280;47633;51.494;5.386;2023-02-26T05:58:00;102078.38;;;17.85;39.38
61710;BME280;47633;51.494;5.386;2023-02-26T06:00:25;102074.72;;;17.87;39.58
61710;BME280;47633;51.494;5.386;2023-02-26T06:02:51;102064.97;;;17.89;39.49
61710;BME280;47633;51.494;5.386;2023-02-26T06:05:16;102075.41;;;17.91;39.27
61710;BME280;47633;51.494;5.386;2023-02-26T06:07:42;102088.31;;;17.95;39.12
61710;BME280;47633;51.494;5.386;2023-02-26T06:10:08;102094.38;;;17.98;39.29
61710;BME280;47633;51.494;5.386;2023-02-26T06:12:34;102099.56;;;17.99;39.19
61710;BME280;47633;51.494;5.386;2023-02-26T06:14:59;102102.19;;;17.99;39.22
61710;BME280;47633;51.494;5.386;2023-02-26T06:17:25;102102.19;;;17.99;39.36
61710;BME280;47633;51.494;5.386;2023-02-26T06:19:51;102102.84;;;18.03;39.27
61710;BME280;47633;51.494;5.386;2023-02-26T06:22:16;102106.41;;;18.02;39.01
61710;BME280;47633;51.494;5.386;2023-02-26T06:24:42;102115.94;;;18.04;39.22
61710;BME280;47633;51.494;5.386;2023-02-26T06:27:07;102119.53;;;18.03;39.30
61710;BME280;47633;51.494;5.386;2023-02-26T06:29:33;102115.94;;;18.04;39.19
61710;BME280;47633;51.494;5.386;2023-02-26T06:31:58;102121.97;;;18.06;39.27
61710;BME280;47633;51.494;5.386;2023-02-26T06:34:24;102128.09;;;18.07;39.32
61710;BME280;47633;51.494;5.386;2023-02-26T06:36:49;102135.06;;;18.08;39.21
61710;BME280;47633;51.494;5.386;2023-02-26T06:39:14;102135.34;;;18.03;38.96
61710;BME280;47633;51.494;5.386;2023-02-26T06:41:40;102144.69;;;18.09;39.16
61710;BME280;47633;51.494;5.386;2023-02-26T06:44:05;102144.69;;;18.09;39.17
61710;BME280;47633;51.494;5.386;2023-02-26T06:46:31;102154.28;;;18.10;39.20
61710;BME280;47633;51.494;5.386;2023-02-26T06:48:56;102161.44;;;18.08;39.17
61710;BME280;47633;51.494;5.386;2023-02-26T06:51:21;102173.53;;;18.12;38.94
61710;BME280;47633;51.494;5.386;2023-02-26T06:53:47;102172.56;;;18.13;39.08
61710;BME280;47633;51.494;5.386;2023-02-26T06:56:12;102174.38;;;18.12;38.85
61710;BME280;47633;51.494;5.386;2023-02-26T06:58:37;102183.81;;;18.17;39.04
61710;BME280;47633;51.494;5.386;2023-02-26T07:01:03;102199.63;;;18.17;39.16
61710;BME280;47633;51.494;5.386;2023-02-26T07:03:28;102192.66;;;18.16;39.38
61710;BME280;47633;51.494;5.386;2023-02-26T07:05:54;102201.31;;;18.18;38.98
61710;BME280;47633;51.494;5.386;2023-02-26T07:08:20;102194.38;;;18.17;39.07
61710;BME280;47633;51.494;5.386;2023-02-26T07:10:45;102206.41;;;18.21;39.05
61710;BME280;47633;51.494;5.386;2023-02-26T07:13:14;102202.28;;;18.17;39.08
61710;BME280;47633;51.494;5.386;2023-02-26T07:15:39;102212.72;;;18.18;39.22
61710;BME280;47633;51.494;5.386;2023-02-26T07:18:04;102217.06;;;18.19;39.19
61710;BME280;47633;51.494;5.386;2023-02-26T07:20:30;102216.22;;;18.19;39.06
61710;BME280;47633;51.494;5.386;2023-02-26T07:22:55;102216.50;;;18.14;39.38
61710;BME280;47633;51.494;5.386;2023-02-26T07:25:21;102224.97;;;18.19;38.91
61710;BME280;47633;51.494;5.386;2023-02-26T07:27:46;102227.59;;;18.19;39.04
61710;BME280;47633;51.494;5.386;2023-02-26T07:30:12;102235.44;;;18.21;38.92
61710;BME280;47633;51.494;5.386;2023-02-26T07:32:38;102240.63;;;18.22;38.71
61710;BME280;47633;51.494;5.386;2023-02-26T07:35:04;102248.53;;;18.22;38.83
61710;BME280;47633;51.494;5.386;2023-02-26T07:37:30;102254.47;;;18.26;38.92
61710;BME280;47633;51.494;5.386;2023-02-26T07:39:55;102258.81;;;18.27;38.82
61710;BME280;47633;51.494;5.386;2023-02-26T07:42:21;102260.72;;;18.25;39.26
61710;BME280;47633;51.494;5.386;2023-02-26T07:44:46;102271.00;;;18.29;39.01
61710;BME280;47633;51.494;5.386;2023-02-26T07:47:12;102264.94;;;18.27;39.08
61710;BME280;47633;51.494;5.386;2023-02-26T07:49:38;102261.38;;;18.28;38.87
61710;BME280;47633;51.494;5.386;2023-02-26T07:52:04;102270.03;;;18.30;39.15
61710;BME280;47633;51.494;5.386;2023-02-26T07:54:31;102271.94;;;18.28;39.13
61710;BME280;47633;51.494;5.386;2023-02-26T07:56:56;102266.56;;;18.30;39.06
61710;BME280;47633;51.494;5.386;2023-02-26T07:59:22;102271.84;;;18.30;38.80
61710;BME280;47633;51.494;5.386;2023-02-26T08:01:47;102284.94;;;18.31;38.87
61710;BME280;47633;51.494;5.386;2023-02-26T08:04:12;102288.16;;;18.37;38.82
61710;BME280;47633;51.494;5.386;2023-02-26T08:06:38;102280.22;;;18.37;38.91
61710;BME280;47633;51.494;5.386;2023-02-26T08:09:03;102283.94;;;18.34;39.48
61710;BME280;47633;51.494;5.386;2023-02-26T08:11:29;102285.50;;;18.37;39.74
61710;BME280;47633;51.494;5.386;2023-02-26T08:13:57;102287.22;;;18.38;39.79
61710;BME280;47633;51.494;5.386;2023-02-26T08:16:23;102292.50;;;18.38;39.29
61710;BME280;47633;51.494;5.386;2023-02-26T08:18:49;102293.34;;;18.38;39.71
61710;BME280;47633;51.494;5.386;2023-02-26T08:21:14;102294.97;;;18.41;39.52
61710;BME280;47633;51.494;5.386;2023-02-26T08:23:40;102302.59;;;18.45;39.73
61710;BME280;47633;51.494;5.386;2023-02-26T08:26:07;102298.91;;;18.48;39.92
61710;BME280;47633;51.494;5.386;2023-02-26T08:28:33;102303.34;;;18.47;39.76
61710;BME280;47633;51.494;5.386;2023-02-26T08:30:59;102306.66;;;18.51;39.74
61710;BME280;47633;51.494;5.386;2023-02-26T08:33:25;102317.97;;;18.53;40.45
61710;BME280;47633;51.494;5.386;2023-02-26T08:35:51;102311.94;;;18.51;40.53
61710;BME280;47633;51.494;5.386;2023-02-26T08:38:16;102317.97;;;18.53;40.56
61710;BME280;47633;51.494;5.386;2023-02-26T08:40:42;102318.84;;;18.54;40.50
61710;BME280;47633;51.494;5.386;2023-02-26T08:43:07;102326.66;;;18.55;40.68
61710;BME280;47633;51.494;5.386;2023-02-26T08:45:33;102318.94;;;18.52;40.95
61710;BME280;47633;51.494;5.386;2023-02-26T08:47:59;102325.63;;;18.58;41.15
61710;BME280;47633;51.494;5.386;2023-02-26T08:50:26;102329.22;;;18.57;40.99
61710;BME280;47633;51.494;5.386;2023-02-26T08:52:52;102327.41;;;18.57;41.48
61710;BME280;47633;51.494;5.386;2023-02-26T08:55:18;102331.75;;;18.58;41.33
61710;BME280;47633;51.494;5.386;2023-02-26T08:57:43;102343.06;;;18.60;42.00
61710;BME280;47633;51.494;5.386;2023-02-26T09:00:09;102355.06;;;18.66;42.74
61710;BME280;47633;51.494;5.386;2023-02-26T09:02:36;102359.22;;;18.70;42.73
61710;BME280;47633;51.494;5.386;2023-02-26T09:05:01;102352.91;;;18.73;42.94
61710;BME280;47633;51.494;5.386;2023-02-26T09:07:27;102355.47;;;18.74;42.81
61710;BME280;47633;51.494;5.386;2023-02-26T09:09:52;102355.47;;;18.74;43.05
61710;BME280;47633;51.494;5.386;2023-02-26T09:12:17;102361.50;;;18.76;43.29
61710;BME280;47633;51.494;5.386;2023-02-26T09:14:43;102369.41;;;18.76;43.18
61710;BME280;47633;51.494;5.386;2023-02-26T09:17:08;102366.69;;;18.78;43.55
61710;BME280;47633;51.494;5.386;2023-02-26T09:19:33;102373.59;;;18.80;43.73
61710;BME280;47633;51.494;5.386;2023-02-26T09:21:58;102369.13;;;18.81;43.45
61710;BME280;47633;51.494;5.386;2023-02-26T09:24:24;102369.81;;;18.84;43.33
61710;BME280;47633;51.494;5.386;2023-02-26T09:26:49;102377.66;;;18.86;43.02
61710;BME280;47633;51.494;5.386;2023-02-26T09:29:14;102375.84;;;18.87;42.87
61710;BME280;47633;51.494;5.386;2023-02-26T09:31:40;102378.41;;;18.88;43.31
61710;BME280;47633;51.494;5.386;2023-02-26T09:34:05;102386.06;;;18.93;43.07
61710;BME280;47633;51.494;5.386;2023-02-26T09:36:30;102391.34;;;18.93;42.48
61710;BME280;47633;51.494;5.386;2023-02-26T09:38:56;102387.13;;;18.90;42.96
61710;BME280;47633;51.494;5.386;2023-02-26T09:41:30;102403.53;;;18.95;42.39
61710;BME280;47633;51.494;5.386;2023-02-26T09:44:27;102402.69;;;18.95;42.25
61710;BME280;47633;51.494;5.386;2023-02-26T09:47:05;102396.63;;;18.93;42.41
61710;BME280;47633;51.494;5.386;2023-02-26T09:52:29;102410.53;;;18.96;41.96
61710;BME280;47633;51.494;5.386;2023-02-26T09:55:00;102416.00;;;18.93;41.53
61710;BME280;47633;51.494;5.386;2023-02-26T09:57:31;102415.03;;;18.94;41.05
61710;BME280;47633;51.494;5.386;2023-02-26T09:59:57;102422.69;;;18.99;40.44
61710;BME280;47633;51.494;5.386;2023-02-26T10:02:39;102421.56;;;19.03;40.80
61710;BME280;47633;51.494;5.386;2023-02-26T10:05:19;102422.31;;;19.05;40.47
61710;BME280;47633;51.494;5.386;2023-02-26T10:07:57;102427.69;;;19.03;40.46
61710;BME280;47633;51.494;5.386;2023-02-26T10:10:42;102435.34;;;19.08;40.16
61710;BME280;47633;51.494;5.386;2023-02-26T10:13:35;102437.81;;;19.11;40.28
61710;BME280;47633;51.494;5.386;2023-02-26T10:16:08;102445.56;;;19.14;39.99
61710;BME280;47633;51.494;5.386;2023-02-26T10:18:36;102443.28;;;19.23;39.87
61710;BME280;47633;51.494;5.386;2023-02-26T10:21:12;102439.81;;;19.22;39.59
61710;BME280;47633;51.494;5.386;2023-02-26T10:23:49;102441.56;;;19.21;39.83
61710;BME280;47633;51.494;5.386;2023-02-26T10:26:23;102441.00;;;19.16;39.78
61710;BME280;47633;51.494;5.386;2023-02-26T10:28:55;102438.38;;;19.16;39.73
61710;BME280;47633;51.494;5.386;2023-02-26T10:31:30;102447.63;;;19.24;39.67
61710;BME280;47633;51.494;5.386;2023-02-26T10:34:23;102451.03;;;19.26;39.54
61710;BME280;47633;51.494;5.386;2023-02-26T10:37:02;102453.50;;;19.29;39.36
61710;BME280;47633;51.494;5.386;2023-02-26T10:42:01;102441.88;;;19.31;38.84
61710;BME280;47633;51.494;5.386;2023-02-26T10:44:37;102445.94;;;19.37;38.52
61710;BME280;47633;51.494;5.386;2023-02-26T10:47:14;102451.22;;;19.37;38.72
61710;BME280;47633;51.494;5.386;2023-02-26T10:50:01;102448.56;;;19.37;38.76
61710;BME280;47633;51.494;5.386;2023-02-26T10:52:30;102456.31;;;19.40;38.97
61710;BME280;47633;51.494;5.386;2023-02-26T10:55:04;102456.31;;;19.40;38.54
61710;BME280;47633;51.494;5.386;2023-02-26T10:57:34;102463.41;;;19.39;38.71
61710;BME280;47633;51.494;5.386;2023-02-26T11:00:03;102452.84;;;19.39;38.68
61710;BME280;47633;51.494;5.386;2023-02-26T11:05:05;102458.97;;;19.40;39.11
61710;BME280;47633;51.494;5.386;2023-02-26T11:07:32;102461.44;;;19.43;39.07
61710;BME280;47633;51.494;5.386;2023-02-26T11:10:01;102457.25;;;19.39;39.11
61710;BME280;47633;51.494;5.386;2023-02-26T11:12:27;102462.44;;;19.40;39.06
61710;BME280;47633;51.494;5.386;2023-02-26T11:14:53;102467.00;;;19.38;38.80
61710;BME280;47633;51.494;5.386;2023-02-26T11:17:21;102470.47;;;19.39;38.77
61710;BME280;47633;51.494;5.386;2023-02-26T11:19:54;102467.28;;;19.34;38.74
61710;BME280;47633;51.494;5.386;2023-02-26T11:22:21;102457.84;;;19.30;38.76
61710;BME280;47633;51.494;5.386;2023-02-26T11:24:47;102459.72;;;19.28;38.81
61710;BME280;47633;51.494;5.386;2023-02-26T11:27:20;102463.41;;;19.25;38.89
61710;BME280;47633;51.494;5.386;2023-02-26T11:29:52;102465.38;;;19.21;38.77
61710;BME280;47633;51.494;5.386;2023-02-26T11:32:21;102459.31;;;19.19;38.37
61710;BME280;47633;51.494;5.386;2023-02-26T11:34:49;102469.63;;;19.24;38.47
61710;BME280;47633;51.494;5.386;2023-02-26T11:37:21;102461.22;;;19.17;38.45
61710;BME280;47633;51.494;5.386;2023-02-26T11:39:52;102448.75;;;19.19;38.62
61710;BME280;47633;51.494;5.386;2023-02-26T11:42:20;102458.59;;;19.17;38.68
61710;BME280;47633;51.494;5.386;2023-02-26T11:44:46;102463.69;;;19.20;38.56
61710;BME280;47633;51.494;5.386;2023-02-26T11:47:19;102468.69;;;19.25;38.66
61710;BME280;47633;51.494;5.386;2023-02-26T11:49:51;102462.63;;;19.23;38.60
61710;BME280;47633;51.494;5.386;2023-02-26T11:52:26;102461.69;;;19.24;38.52
61710;BME280;47633;51.494;5.386;2023-02-26T11:54:58;102462.72;;;19.21;38.27
61710;BME280;47633;51.494;5.386;2023-02-26T11:57:25;102457.53;;;19.20;37.81
61710;BME280;47633;51.494;5.386;2023-02-26T11:59:54;102440.19;;;19.16;38.37
61710;BME280;47633;51.494;5.386;2023-02-26T12:02:25;102453.84;;;19.23;39.60
61710;BME280;47633;51.494;5.386;2023-02-26T12:04:54;102457.34;;;19.23;39.64
61710;BME280;47633;51.494;5.386;2023-02-26T12:07:21;102448.84;;;19.18;40.41
61710;BME280;47633;51.494;5.386;2023-02-26T12:09:47;102458.75;;;19.14;40.78
61710;BME280;47633;51.494;5.386;2023-02-26T12:12:28;102458.84;;;19.13;40.96
61710;BME280;47633;51.494;5.386;2023-02-26T12:15:02;102457.84;;;19.15;41.07
61710;BME280;47633;51.494;5.386;2023-02-26T12:17:50;102446.00;;;19.07;40.91
61710;BME280;47633;51.494;5.386;2023-02-26T12:20:28;102455.56;;;19.09;41.47
61710;BME280;47633;51.494;5.386;2023-02-26T12:28:38;102458.19;;;19.09;42.49
61710;BME280;47633;51.494;5.386;2023-02-26T12:31:15;102461.03;;;19.20;41.49
61710;BME280;47633;51.494;5.386;2023-02-26T12:44:37;102456.13;;;19.29;42.12
61710;BME280;47633;51.494;5.386;2023-02-26T12:47:22;102448.28;;;19.27;41.33
61710;BME280;47633;51.494;5.386;2023-02-26T12:57:38;102449.41;;;19.23;40.76
61710;BME280;47633;51.494;5.386;2023-02-26T13:00:29;102447.81;;;19.20;41.18
61710;BME280;47633;51.494;5.386;2023-02-26T13:06:25;102442.72;;;19.17;40.73
61710;BME280;47633;51.494;5.386;2023-02-26T13:12:06;102442.34;;;19.24;40.71
61710;BME280;47633;51.494;5.386;2023-02-26T13:17:21;102452.56;;;19.30;40.83
61710;BME280;47633;51.494;5.386;2023-02-26T13:19:52;102440.19;;;19.30;40.68
61710;BME280;47633;51.494;5.386;2023-02-26T13:22:28;102454.16;;;19.32;40.68
61710;BME280;47633;51.494;5.386;2023-02-26T13:25:39;102448.94;;;19.31;40.86
61710;BME280;47633;51.494;5.386;2023-02-26T13:27:45;102442.91;;;19.29;41.21
61710;BME280;47633;51.494;5.386;2023-02-26T13:32:38;102449.91;;;19.30;41.23
61710;BME280;47633;51.494;5.386;2023-02-26T13:35:18;102430.91;;;19.23;41.09
61710;BME280;47633;51.494;5.386;2023-02-26T13:37:50;102447.00;;;19.34;41.32
61710;BME280;47633;51.494;5.386;2023-02-26T13:43:08;102434.81;;;19.32;41.11
61710;BME280;47633;51.494;5.386;2023-02-26T13:51:28;102428.78;;;19.30;41.75
61710;BME280;47633;51.494;5.386;2023-02-26T13:54:00;102451.50;;;19.32;41.72
61710;BME280;47633;51.494;5.386;2023-02-26T14:06:54;102444.91;;;19.39;42.05
61710;BME280;47633;51.494;5.386;2023-02-26T14:17:49;102439.22;;;19.74;41.29
61710;BME280;47633;51.494;5.386;2023-02-26T14:20:25;102441.97;;;19.73;41.42
61710;BME280;47633;51.494;5.386;2023-02-26T14:23:24;102437.16;;;19.65;41.80
61710;BME280;47633;51.494;5.386;2023-02-26T14:25:55;102438.75;;;19.68;41.34
61710;BME280;47633;51.494;5.386;2023-02-26T14:31:20;102443.28;;;19.66;41.72
61710;BME280;47633;51.494;5.386;2023-02-26T14:36:43;102451.97;;;19.53;41.68
61710;BME280;47633;51.494;5.386;2023-02-26T14:39:22;102450.09;;;19.55;41.84
61710;BME280;47633;51.494;5.386;2023-02-26T14:41:48;102450.66;;;19.61;41.39
61710;BME280;47633;51.494;5.386;2023-02-26T14:44:22;102442.34;;;19.52;42.19
61710;BME280;47633;51.494;5.386;2023-02-26T14:46:48;102438.00;;;19.51;41.97
61710;BME280;47633;51.494;5.386;2023-02-26T14:49:38;102444.03;;;19.53;41.93
61710;BME280;47633;51.494;5.386;2023-02-26T15:01:06;102438.84;;;19.37;41.97